createdAt,value
2023-02-08T00:00:11.961Z,63.86
2023-02-08T00:02:39.477Z,64.29
2023-02-08T00:05:06.835Z,61.67
2023-02-08T00:07:33.976Z,65.20
2023-02-08T00:10:02.841Z,65.75
2023-02-08T00:12:29.998Z,64.36
2023-02-08T00:14:57.170Z,64.20
2023-02-08T00:17:24.665Z,63.81
2023-02-08T00:19:52.240Z,62.99
2023-02-08T00:22:19.413Z,63.34
2023-02-08T00:24:46.838Z,62.81
2023-02-08T00:27:14.051Z,63.58
2023-02-08T00:29:41.185Z,62.40
2023-02-08T00:32:08.638Z,63.42
2023-02-08T00:34:35.848Z,60.30
2023-02-08T00:37:03.049Z,61.03
2023-02-08T00:39:30.535Z,62.27
2023-02-08T00:41:57.784Z,60.37
2023-02-08T00:44:24.970Z,61.39
2023-02-08T00:46:52.541Z,60.95
2023-02-08T00:49:19.725Z,60.91
2023-02-08T00:51:46.884Z,59.08
2023-02-08T00:54:15.149Z,59.61
2023-02-08T00:56:42.344Z,59.17
2023-02-08T00:59:09.680Z,62.57
2023-02-08T01:01:37.371Z,63.12
2023-02-08T01:04:04.703Z,61.90
2023-02-08T01:06:31.954Z,61.13
2023-02-08T01:08:59.400Z,56.60
2023-02-08T01:11:26.912Z,58.38
2023-02-08T01:13:55.800Z,54.06
2023-02-08T01:16:24.405Z,49.72
2023-02-08T01:18:52.119Z,48.10
2023-02-08T01:21:20.283Z,52.33
2023-02-08T01:23:47.810Z,49.89
2023-02-08T01:26:15.487Z,46.62
2023-02-08T01:28:42.706Z,53.22
2023-02-08T01:31:14.370Z,47.74
2023-02-08T01:33:41.773Z,46.96
2023-02-08T01:36:10.085Z,51.66
2023-02-08T01:38:37.713Z,48.94
2023-02-08T01:41:05.264Z,49.67
2023-02-08T01:43:34.097Z,54.06
2023-02-08T01:46:01.692Z,54.76
2023-02-08T01:48:33.397Z,58.60
2023-02-08T01:51:06.580Z,57.79
2023-02-08T01:53:35.550Z,59.53
2023-02-08T01:56:08.012Z,60.24
2023-02-08T01:58:39.792Z,62.15
2023-02-08T02:01:07.539Z,61.42
2023-02-08T02:03:35.280Z,60.79
2023-02-08T02:06:08.838Z,58.72
2023-02-08T02:08:40.453Z,61.38
2023-02-08T02:11:07.914Z,59.00
2023-02-08T02:13:36.997Z,54.62
2023-02-08T02:16:05.029Z,49.48
2023-02-08T02:18:33.079Z,52.16
2023-02-08T02:21:27.627Z,58.66
2023-02-08T02:24:23.490Z,52.19
2023-02-08T02:27:09.624Z,47.02
2023-02-08T02:29:37.181Z,43.02
2023-02-08T02:32:13.710Z,53.48
2023-02-08T02:34:46.137Z,53.18
2023-02-08T02:37:29.679Z,54.38
2023-02-08T02:40:00.137Z,49.65
2023-02-08T02:42:52.008Z,52.26
2023-02-08T02:45:25.962Z,54.31
2023-02-08T02:47:56.085Z,53.51
2023-02-08T02:50:25.221Z,49.29
2023-02-08T02:53:12.685Z,57.75
2023-02-08T02:55:41.427Z,60.31
2023-02-08T02:58:08.854Z,49.97
2023-02-08T03:00:36.095Z,58.20
2023-02-08T03:03:03.767Z,58.42
2023-02-08T03:05:30.923Z,60.02
2023-02-08T03:08:10.767Z,59.63
2023-02-08T03:10:44.318Z,58.54
2023-02-08T03:13:14.498Z,53.85
2023-02-08T03:15:47.788Z,50.21
2023-02-08T03:18:33.788Z,53.35
2023-02-08T03:21:12.523Z,50.04
2023-02-08T03:23:58.562Z,45.50
2023-02-08T03:26:34.600Z,47.92
2023-02-08T03:29:08.648Z,47.72
2023-02-08T03:31:42.290Z,46.76
2023-02-08T03:34:19.835Z,44.73
2023-02-08T03:36:50.358Z,48.03
2023-02-08T03:39:20.022Z,44.57
2023-02-08T03:41:47.985Z,42.84
2023-02-08T03:44:16.631Z,44.40
2023-02-08T03:46:49.799Z,43.47
2023-02-08T03:49:19.066Z,45.31
2023-02-08T03:51:46.199Z,44.26
2023-02-08T03:54:15.917Z,39.99
2023-02-08T03:56:45.297Z,42.90
2023-02-08T03:59:13.738Z,50.48
2023-02-08T04:02:01.135Z,50.75
2023-02-08T04:04:34.200Z,50.58
2023-02-08T04:07:01.390Z,50.19
2023-02-08T04:09:28.992Z,46.43
2023-02-08T04:11:56.174Z,50.40
2023-02-08T04:14:23.409Z,53.97
2023-02-08T04:16:50.940Z,53.54
2023-02-08T04:19:18.092Z,53.75
2023-02-08T04:21:45.225Z,53.76
2023-02-08T04:24:12.730Z,54.41
2023-02-08T04:26:39.854Z,53.00
2023-02-08T04:29:06.995Z,52.19
2023-02-08T04:31:34.506Z,48.92
2023-02-08T04:34:02.752Z,47.70
2023-02-08T04:36:29.923Z,46.65
2023-02-08T04:38:57.671Z,49.08
2023-02-08T04:41:25.017Z,44.03
2023-02-08T04:43:53.701Z,45.87
2023-02-08T04:46:23.739Z,42.74
2023-02-08T04:48:50.899Z,46.18
2023-02-08T04:51:18.129Z,43.25
2023-02-08T04:53:45.608Z,47.09
2023-02-08T04:56:12.746Z,44.73
2023-02-08T04:58:39.904Z,47.02
2023-02-08T05:01:07.833Z,42.65
2023-02-08T05:03:35.398Z,42.11
2023-02-08T05:06:02.522Z,45.04
2023-02-08T05:08:29.952Z,45.39
2023-02-08T05:10:57.283Z,43.84
2023-02-08T05:13:24.435Z,43.24
2023-02-08T05:15:51.885Z,44.85
2023-02-08T05:18:19.081Z,42.00
2023-02-08T05:20:46.288Z,41.88
2023-02-08T05:23:13.758Z,43.44
2023-02-08T05:25:42.217Z,42.76
2023-02-08T05:28:09.421Z,43.59
2023-02-08T05:30:38.097Z,43.05
2023-02-08T05:33:05.285Z,44.03
2023-02-08T05:35:32.440Z,43.59
2023-02-08T05:37:59.842Z,45.45
2023-02-08T05:40:26.969Z,44.59
2023-02-08T05:42:54.105Z,45.66
2023-02-08T05:45:21.571Z,44.60
2023-02-08T05:47:49.025Z,41.79
2023-02-08T05:50:16.568Z,42.10
2023-02-08T05:52:44.156Z,39.60
2023-02-08T05:55:11.382Z,41.57
2023-02-08T05:57:38.522Z,40.39
2023-02-08T06:00:06.250Z,40.56
2023-02-08T06:02:43.373Z,40.68
2023-02-08T06:05:11.225Z,42.07
2023-02-08T06:07:38.379Z,42.83
2023-02-08T06:10:05.932Z,40.59
2023-02-08T06:12:33.377Z,40.61
2023-02-08T06:15:00.711Z,39.88
2023-02-08T06:17:28.138Z,40.72
2023-02-08T06:19:55.573Z,41.10
2023-02-08T06:22:22.733Z,40.52
2023-02-08T06:24:49.953Z,41.74
2023-02-08T06:27:17.473Z,47.15
2023-02-08T06:29:44.693Z,44.37
2023-02-08T06:32:11.963Z,42.06
2023-02-08T06:34:39.622Z,44.44
2023-02-08T06:37:06.952Z,44.88
2023-02-08T06:39:34.207Z,47.67
2023-02-08T06:42:01.710Z,48.53
2023-02-08T06:44:28.841Z,52.28
2023-02-08T06:46:56.016Z,51.98
2023-02-08T06:49:23.448Z,49.69
2023-02-08T06:51:50.616Z,46.15
2023-02-08T06:54:17.915Z,50.37
2023-02-08T06:56:45.372Z,47.30
2023-02-08T06:59:12.653Z,47.40
2023-02-08T07:01:39.861Z,48.37
2023-02-08T07:04:07.340Z,52.77
2023-02-08T07:06:34.582Z,50.44
2023-02-08T07:09:03.448Z,49.59
2023-02-08T07:11:31.361Z,48.49
2023-02-08T07:13:58.684Z,49.21
2023-02-08T07:16:25.863Z,46.32
2023-02-08T07:18:53.507Z,47.62
2023-02-08T07:21:21.668Z,45.85
2023-02-08T07:23:48.861Z,43.67
2023-02-08T07:26:16.292Z,45.67
2023-02-08T07:28:44.109Z,45.05
2023-02-08T07:31:12.520Z,45.00
2023-02-08T07:33:40.168Z,44.19
2023-02-08T07:36:08.932Z,44.09
2023-02-08T07:38:37.532Z,44.28
2023-02-08T07:41:09.618Z,45.41
2023-02-08T07:43:37.575Z,43.73
2023-02-08T07:46:07.748Z,42.88
2023-02-08T07:48:35.521Z,44.50
2023-02-08T07:51:03.305Z,44.98
2023-02-08T07:53:32.079Z,45.22
2023-02-08T07:56:00.108Z,47.07
2023-02-08T07:58:27.609Z,45.87
2023-02-08T08:00:55.410Z,45.77
2023-02-08T08:03:23.133Z,45.42
2023-02-08T08:05:53.110Z,43.89
2023-02-08T08:08:21.956Z,45.53
2023-02-08T08:10:49.625Z,45.05
2023-02-08T08:13:17.056Z,46.34
2023-02-08T08:15:44.578Z,45.76
2023-02-08T08:18:12.311Z,46.40
2023-02-08T08:20:39.877Z,44.45
2023-02-08T08:23:07.507Z,46.94
2023-02-08T08:25:34.949Z,47.55
2023-02-08T08:28:02.175Z,46.57
2023-02-08T08:30:29.434Z,47.72
2023-02-08T08:32:57.023Z,46.08
2023-02-08T08:35:24.253Z,46.12
2023-02-08T08:37:51.463Z,46.33
2023-02-08T08:40:19.131Z,46.93
2023-02-08T08:42:46.268Z,46.43
2023-02-08T08:45:13.437Z,46.42
2023-02-08T08:47:40.930Z,45.86
2023-02-08T08:50:08.432Z,46.57
2023-02-08T08:52:35.598Z,47.30
2023-02-08T08:55:03.171Z,48.15
2023-02-08T08:57:30.569Z,46.70
2023-02-08T08:59:58.146Z,47.21
2023-02-08T09:02:25.567Z,47.42
2023-02-08T09:04:52.955Z,48.64
2023-02-08T09:07:20.165Z,47.45
2023-02-08T09:09:48.084Z,48.05
2023-02-08T09:12:15.915Z,46.55
2023-02-08T09:14:44.795Z,45.78
2023-02-08T09:17:12.422Z,46.70
2023-02-08T09:19:39.668Z,46.42
2023-02-08T09:22:07.612Z,46.60
2023-02-08T09:24:35.432Z,45.49
2023-02-08T09:27:03.512Z,46.65
2023-02-08T09:29:32.844Z,46.54
2023-02-08T09:32:00.550Z,45.81
2023-02-08T09:34:28.352Z,45.06
2023-02-08T09:36:55.792Z,46.65
2023-02-08T09:39:25.601Z,46.43
2023-02-08T09:42:18.079Z,47.11
2023-02-08T09:45:00.789Z,45.96
2023-02-08T09:47:36.498Z,46.03
2023-02-08T09:50:14.005Z,45.13
2023-02-08T09:53:02.175Z,41.94
2023-02-08T09:55:29.873Z,41.15
2023-02-08T09:57:57.886Z,44.12
2023-02-08T10:00:27.853Z,44.25
2023-02-08T10:02:58.363Z,42.34
2023-02-08T10:05:26.996Z,42.35
2023-02-08T10:07:56.306Z,42.20
2023-02-08T10:10:50.346Z,41.28
2023-02-08T10:13:41.049Z,40.03
2023-02-08T10:16:47.005Z,40.17
2023-02-08T10:19:38.576Z,39.77
2023-02-08T10:22:12.336Z,38.69
2023-02-08T10:24:45.773Z,41.11
2023-02-08T10:27:16.437Z,45.25
2023-02-08T10:29:59.198Z,41.65
2023-02-08T10:32:38.538Z,39.69
2023-02-08T10:35:13.946Z,38.13
2023-02-08T10:37:42.019Z,38.14
2023-02-08T10:40:21.100Z,37.74
2023-02-08T10:42:48.932Z,38.07
2023-02-08T10:45:25.341Z,38.70
2023-02-08T10:47:57.040Z,39.87
2023-02-08T10:50:37.738Z,37.31
2023-02-08T10:53:05.733Z,37.70
2023-02-08T10:55:36.563Z,38.33
2023-02-08T10:58:05.532Z,38.41
2023-02-08T11:00:39.923Z,39.32
2023-02-08T11:03:18.878Z,37.13
2023-02-08T11:05:46.667Z,36.46
2023-02-08T11:08:19.472Z,36.91
2023-02-08T11:10:59.347Z,36.04
2023-02-08T11:13:42.482Z,35.87
2023-02-08T11:16:12.734Z,35.52
2023-02-08T11:18:58.546Z,35.11
2023-02-08T11:21:29.777Z,34.33
2023-02-08T11:23:58.651Z,34.20
2023-02-08T11:26:32.669Z,34.29
2023-02-08T11:29:26.465Z,35.38
2023-02-08T11:32:15.511Z,37.18
2023-02-08T11:34:42.884Z,33.68
2023-02-08T11:37:16.678Z,34.28
2023-02-08T11:39:49.791Z,33.31
2023-02-08T11:42:28.243Z,33.58
2023-02-08T11:44:56.967Z,32.38
2023-02-08T11:47:26.673Z,34.10
2023-02-08T11:50:05.865Z,33.56
2023-02-08T11:52:36.664Z,32.84
2023-02-08T11:55:26.406Z,33.48
2023-02-08T11:58:13.450Z,34.71
2023-02-08T12:00:41.478Z,30.28
2023-02-08T12:03:19.633Z,30.82
2023-02-08T12:06:31.825Z,30.96
2023-02-08T12:09:27.582Z,31.48
2023-02-08T12:12:08.588Z,29.53
2023-02-08T12:14:54.926Z,30.57
2023-02-08T12:17:34.131Z,30.27
2023-02-08T12:20:16.885Z,32.29
2023-02-08T12:23:12.870Z,30.65
2023-02-08T12:26:16.156Z,32.61
2023-02-08T12:29:21.258Z,33.15
2023-02-08T12:32:26.433Z,29.17
2023-02-08T12:35:33.119Z,35.32
2023-02-08T12:38:35.045Z,32.12
2023-02-08T12:41:30.421Z,33.12
2023-02-08T12:44:10.262Z,31.85
2023-02-08T12:47:04.566Z,32.35
2023-02-08T12:49:35.829Z,30.39
2023-02-08T12:52:21.902Z,33.26
2023-02-08T12:55:25.916Z,33.53
2023-02-08T12:57:57.976Z,30.23
2023-02-08T13:00:28.530Z,29.77
2023-02-08T13:03:29.719Z,30.70
2023-02-08T13:06:02.881Z,31.47
2023-02-08T13:08:41.676Z,32.55
2023-02-08T13:11:31.222Z,34.33
2023-02-08T13:14:13.567Z,33.52
2023-02-08T13:16:43.032Z,30.26
2023-02-08T13:19:30.442Z,30.02
2023-02-08T13:21:58.276Z,31.72
2023-02-08T13:24:33.884Z,29.04
2023-02-08T13:27:01.461Z,31.68
2023-02-08T13:29:29.656Z,31.41
2023-02-08T13:31:58.664Z,30.71
2023-02-08T13:34:45.234Z,33.46
2023-02-08T13:37:31.454Z,29.81
2023-02-08T13:40:12.834Z,36.24
2023-02-08T13:42:40.054Z,30.39
2023-02-08T13:45:07.872Z,30.22
2023-02-08T13:47:40.695Z,29.45
2023-02-08T13:50:29.145Z,30.46
2023-02-08T13:52:56.608Z,30.91
2023-02-08T13:55:33.627Z,30.19
2023-02-08T13:58:03.936Z,33.30
2023-02-08T14:00:35.006Z,30.99
2023-02-08T14:03:08.459Z,29.13
2023-02-08T14:05:48.997Z,31.26
2023-02-08T14:08:19.561Z,30.11
2023-02-08T14:10:49.842Z,30.89
2023-02-08T14:13:31.697Z,31.11
2023-02-08T14:16:17.874Z,29.86
2023-02-08T14:18:51.947Z,30.37
2023-02-08T14:21:26.271Z,31.22
2023-02-08T14:24:04.127Z,31.25
2023-02-08T14:26:31.519Z,31.15
2023-02-08T14:29:00.294Z,31.29
2023-02-08T14:31:43.523Z,31.08
2023-02-08T14:34:27.093Z,31.62
2023-02-08T14:37:02.064Z,30.94
2023-02-08T14:39:33.355Z,30.69
2023-02-08T14:42:08.952Z,31.45
2023-02-08T14:44:39.633Z,31.62
2023-02-08T14:47:13.584Z,31.99
2023-02-08T14:49:45.053Z,30.65
2023-02-08T14:52:13.616Z,31.49
2023-02-08T14:54:48.783Z,31.53
2023-02-08T14:57:22.678Z,32.13
2023-02-08T14:59:50.183Z,32.56
2023-02-08T15:02:21.682Z,32.51
2023-02-08T15:04:48.867Z,33.89
2023-02-08T15:07:33.486Z,31.90
2023-02-08T15:10:04.819Z,32.09
2023-02-08T15:12:33.243Z,33.12
2023-02-08T15:15:01.234Z,31.92
2023-02-08T15:17:41.512Z,32.84
2023-02-08T15:20:14.289Z,31.70
2023-02-08T15:22:41.455Z,32.27
2023-02-08T15:25:29.956Z,31.58
2023-02-08T15:28:00.029Z,31.25
2023-02-08T15:30:30.705Z,32.90
2023-02-08T15:32:58.034Z,32.41
2023-02-08T15:35:26.048Z,33.88
2023-02-08T15:37:53.939Z,32.69
2023-02-08T15:40:32.793Z,31.45
2023-02-08T15:43:18.220Z,31.08
2023-02-08T15:45:45.867Z,31.41
2023-02-08T15:48:13.672Z,31.73
2023-02-08T15:50:40.910Z,32.08
2023-02-08T15:53:11.278Z,31.78
2023-02-08T15:55:40.175Z,31.63
2023-02-08T15:58:16.654Z,31.47
2023-02-08T16:00:46.018Z,32.67
2023-02-08T16:03:23.863Z,31.77
2023-02-08T16:05:54.188Z,32.27
2023-02-08T16:08:27.256Z,31.82
2023-02-08T16:11:04.213Z,31.65
2023-02-08T16:13:34.769Z,31.33
2023-02-08T16:16:20.844Z,31.53
2023-02-08T16:18:58.477Z,31.34
2023-02-08T16:21:25.942Z,31.35
2023-02-08T16:23:56.766Z,30.46
2023-02-08T16:26:28.924Z,30.59
2023-02-08T16:28:58.091Z,31.55
2023-02-08T16:31:28.475Z,31.30
2023-02-08T16:34:07.751Z,31.56
2023-02-08T16:36:39.640Z,31.05
2023-02-08T16:39:19.512Z,31.64
2023-02-08T16:42:20.647Z,32.25
2023-02-08T16:45:02.049Z,31.80
2023-02-08T16:47:45.003Z,31.75
2023-02-08T16:50:15.926Z,31.84
2023-02-08T16:52:44.337Z,31.67
2023-02-08T16:55:26.569Z,31.36
2023-02-08T16:57:56.587Z,31.80
2023-02-08T17:00:28.925Z,31.98
2023-02-08T17:02:56.923Z,32.15
2023-02-08T17:05:25.744Z,31.96
2023-02-08T17:07:53.462Z,31.87
2023-02-08T17:10:23.584Z,31.87
2023-02-08T17:12:51.335Z,32.24
2023-02-08T17:15:20.960Z,32.31
2023-02-08T17:17:48.556Z,32.53
2023-02-08T17:20:20.562Z,32.84
2023-02-08T17:22:49.308Z,33.30
2023-02-08T17:25:20.729Z,32.75
2023-02-08T17:27:55.909Z,33.41
2023-02-08T17:30:28.269Z,32.79
2023-02-08T17:32:58.654Z,33.07
2023-02-08T17:35:29.858Z,33.85
2023-02-08T17:37:58.898Z,33.93
2023-02-08T17:40:33.072Z,33.50
2023-02-08T17:43:00.930Z,34.83
2023-02-08T17:45:31.579Z,35.66
2023-02-08T17:48:08.931Z,36.95
2023-02-08T17:50:36.783Z,35.17
2023-02-08T17:53:05.108Z,34.76
2023-02-08T17:55:32.997Z,34.52
2023-02-08T17:58:01.156Z,34.55
2023-02-08T18:00:29.178Z,34.79
2023-02-08T18:03:03.412Z,34.69
2023-02-08T18:05:31.035Z,35.79
2023-02-08T18:07:59.091Z,34.50
2023-02-08T18:10:28.402Z,34.97
2023-02-08T18:12:57.659Z,34.26
2023-02-08T18:15:25.678Z,36.61
2023-02-08T18:17:53.114Z,38.18
2023-02-08T18:20:22.332Z,38.59
2023-02-08T18:22:51.055Z,38.28
2023-02-08T18:25:20.659Z,38.41
2023-02-08T18:27:49.208Z,37.59
2023-02-08T18:30:18.113Z,36.12
2023-02-08T18:32:46.154Z,35.38
2023-02-08T18:35:16.161Z,35.30
2023-02-08T18:37:49.950Z,35.06
2023-02-08T18:40:18.321Z,34.73
2023-02-08T18:42:46.880Z,34.96
2023-02-08T18:45:15.128Z,35.45
2023-02-08T18:47:43.364Z,36.67
2023-02-08T18:50:11.907Z,37.58
2023-02-08T18:52:40.011Z,35.95
2023-02-08T18:55:08.577Z,37.52
2023-02-08T18:57:40.171Z,36.88
2023-02-08T19:00:09.794Z,35.96
2023-02-08T19:02:39.601Z,36.15
2023-02-08T19:05:07.910Z,36.34
2023-02-08T19:07:36.194Z,36.41
2023-02-08T19:10:07.697Z,36.08
2023-02-08T19:12:35.606Z,35.65
2023-02-08T19:15:04.890Z,35.38
2023-02-08T19:17:33.930Z,36.27
2023-02-08T19:20:01.922Z,35.77
2023-02-08T19:22:30.510Z,35.59
2023-02-08T19:25:01.705Z,36.38
2023-02-08T19:27:32.730Z,36.29
2023-02-08T19:30:01.103Z,36.49
2023-02-08T19:32:31.649Z,36.14
2023-02-08T19:35:02.305Z,36.46
2023-02-08T19:37:32.096Z,37.20
2023-02-08T19:40:00.700Z,36.04
2023-02-08T19:42:30.127Z,35.90
2023-02-08T19:45:01.077Z,36.00
2023-02-08T19:47:48.380Z,37.50
2023-02-08T19:50:18.280Z,37.96
2023-02-08T19:52:46.656Z,39.81
2023-02-08T19:55:16.258Z,40.84
2023-02-08T19:57:44.592Z,44.81
2023-02-08T20:00:23.108Z,50.45
2023-02-08T20:02:53.131Z,51.41
2023-02-08T20:05:21.368Z,52.36
2023-02-08T20:07:50.227Z,50.37
2023-02-08T20:10:18.764Z,48.39
2023-02-08T20:12:47.164Z,46.31
2023-02-08T20:15:15.604Z,45.53
2023-02-08T20:17:45.006Z,47.93
2023-02-08T20:20:13.402Z,51.44
2023-02-08T20:22:42.226Z,54.21
2023-02-08T20:25:14.296Z,57.24
2023-02-08T20:27:42.429Z,56.17
2023-02-08T20:30:13.874Z,53.84
2023-02-08T20:32:44.036Z,51.92
2023-02-08T20:35:12.350Z,53.01
2023-02-08T20:37:40.922Z,54.10
2023-02-08T20:40:09.951Z,55.76
2023-02-08T20:42:39.038Z,56.77
2023-02-08T20:45:09.408Z,57.41
2023-02-08T20:47:46.061Z,57.30
2023-02-08T20:50:20.190Z,55.69
2023-02-08T20:52:49.105Z,52.71
2023-02-08T20:55:17.345Z,50.53
2023-02-08T20:57:45.180Z,49.74
2023-02-08T21:00:13.929Z,48.80
2023-02-08T21:02:42.976Z,48.26
2023-02-08T21:05:10.801Z,48.20
2023-02-08T21:07:40.470Z,48.78
2023-02-08T21:10:08.536Z,49.70
2023-02-08T21:12:36.581Z,49.72
2023-02-08T21:15:05.551Z,51.51
2023-02-08T21:17:34.757Z,51.60
2023-02-08T21:20:02.249Z,48.90
2023-02-08T21:22:29.510Z,51.69
2023-02-08T21:24:57.783Z,54.08
2023-02-08T21:27:25.357Z,56.94
2023-02-08T21:29:52.994Z,54.57
2023-02-08T21:32:20.741Z,51.68
2023-02-08T21:34:49.391Z,51.19
2023-02-08T21:37:16.965Z,51.01
2023-02-08T21:39:47.219Z,50.42
2023-02-08T21:42:14.822Z,52.60
2023-02-08T21:44:42.138Z,56.20
2023-02-08T21:47:09.924Z,56.68
2023-02-08T21:50:15.963Z,59.32
2023-02-08T21:53:02.214Z,58.81
2023-02-08T21:55:29.577Z,57.16
2023-02-08T21:57:57.062Z,56.94
2023-02-08T22:00:24.321Z,52.04
2023-02-08T22:02:51.928Z,48.48
2023-02-08T22:05:38.029Z,48.39
2023-02-08T22:08:05.469Z,47.86
2023-02-08T22:10:33.465Z,47.80
2023-02-08T22:13:00.854Z,47.25
2023-02-08T22:15:28.753Z,47.53
2023-02-08T22:17:56.856Z,48.18
2023-02-08T22:20:24.148Z,48.95
2023-02-08T22:22:53.116Z,51.12
2023-02-08T22:25:22.515Z,46.94
2023-02-08T22:27:49.735Z,47.47
2023-02-08T22:30:17.910Z,48.33
2023-02-08T22:32:45.902Z,49.54
2023-02-08T22:35:13.120Z,48.83
2023-02-08T22:37:40.545Z,47.07
2023-02-08T22:40:08.402Z,47.23
2023-02-08T22:42:35.647Z,45.17
2023-02-08T22:45:03.166Z,47.56
2023-02-08T22:47:30.493Z,46.12
2023-02-08T22:49:58.562Z,47.27
2023-02-08T22:52:26.217Z,46.97
2023-02-08T22:54:53.425Z,46.18
2023-02-08T22:57:20.558Z,47.49
2023-02-08T22:59:48.181Z,47.59
2023-02-08T23:02:17.877Z,49.57
2023-02-08T23:04:45.062Z,50.79
2023-02-08T23:07:12.686Z,50.60
2023-02-08T23:09:39.862Z,54.22
2023-02-08T23:12:07.112Z,49.38
2023-02-08T23:14:35.570Z,49.51
2023-02-08T23:17:02.801Z,49.86
2023-02-08T23:19:29.945Z,52.33
2023-02-08T23:21:57.868Z,52.98
2023-02-08T23:24:25.161Z,53.55
2023-02-08T23:26:52.455Z,51.31
2023-02-08T23:29:20.049Z,51.51
2023-02-08T23:31:47.326Z,51.65
2023-02-08T23:34:14.534Z,52.68
2023-02-08T23:36:41.960Z,53.43
2023-02-08T23:39:09.145Z,53.78
2023-02-08T23:41:36.435Z,52.19
2023-02-08T23:44:03.908Z,51.70
2023-02-08T23:46:31.083Z,48.89
2023-02-08T23:48:58.216Z,49.52
2023-02-08T23:51:25.845Z,48.97
2023-02-08T23:53:54.183Z,49.98
2023-02-08T23:56:21.348Z,55.96
2023-02-08T23:58:50.024Z,54.04
